< < Back
Terminal Aerodrome Forecast


Current Version              Previous Versions:   1  2  3  4  5  6  7  8  9  

Terminal Aerodrome Forecast

026
FTUS44 KMOB 041721
TAFMOB
TAF
KMOB 041721Z 0418/0518 VRB05KT P6SM VCTS SCT035CB BKN200
     FM050000 VRB03KT P6SM SKC
     FM051500 VRB05KT P6SM SCT035=

Latest METAR

673
SAUS80 KWBC 041900
MTRMOB
METAR KMOB 041856Z VRB05KT 10SM BKN050TCU BKN100 BKN250 33/23 A3001 RMK
AO2 SLP157 TCU ALQDS T03280233


USA.gov is the U.S. government's official web portal to all federal, state and local government web resources and services.